Time;durP1;ratioP1;P1;durP2;ratioP2;P2;SDS_P1;SDS_P2;PMS_P1;PMS_P2;Temp;Humidity;BMP_temperature;BMP_pressure;BME280_temperature;BME280_humidity;BME280_pressure;Samples;Min_cycle;Max_cycle;Signal;HPM_P1;HPM_P2
2023/03/12 00:00:40;;;;;;;0.70;0.70;;;-0.80;99.90;;;;;;4962218;28;20049;-83
2023/03/12 00:03:06;;;;;;;0.85;0.85;;;-0.90;99.90;;;;;;4943090;28;20046;-83
2023/03/12 00:05:32;;;;;;;0.80;0.80;;;-1.00;99.90;;;;;;4957963;28;20054;-83
2023/03/12 00:07:58;;;;;;;0.90;0.90;;;-0.80;99.90;;;;;;4945715;28;20555;-83
2023/03/12 00:10:25;;;;;;;;;;;-1.00;99.90;;;;;;4944924;28;20395;-82
2023/03/12 00:12:52;;;;;;;0.73;0.73;;;-0.80;99.90;;;;;;4961490;28;20283;-83
2023/03/12 00:15:18;;;;;;;0.90;0.90;;;-0.80;99.90;;;;;;4941928;28;20055;-83
2023/03/12 00:17:44;;;;;;;0.80;0.80;;;-0.80;99.90;;;;;;4964442;28;20488;-83
2023/03/12 00:20:11;;;;;;;0.80;0.80;;;-0.80;99.90;;;;;;4943692;28;20089;-82
2023/03/12 00:22:36;;;;;;;0.80;0.80;;;-0.80;99.90;;;;;;4933551;28;20043;-84
2023/03/12 00:25:06;;;;;;;0.90;0.90;;;-0.90;99.90;;;;;;4932221;28;20055;-84
2023/03/12 00:27:32;;;;;;;0.80;0.80;;;-0.90;99.90;;;;;;4976724;28;20046;-84
2023/03/12 00:29:59;;;;;;;0.80;0.80;;;-1.10;99.90;;;;;;4947478;28;20058;-84
2023/03/12 00:32:25;;;;;;;0.73;0.73;;;-1.40;99.90;;;;;;4946735;28;20039;-83
2023/03/12 00:34:52;;;;;;;0.80;0.80;;;-0.60;99.90;;;;;;4944921;28;20042;-83
2023/03/12 00:37:18;;;;;;;0.80;0.80;;;0.60;99.90;;;;;;4947254;28;20059;-83
2023/03/12 00:39:44;;;;;;;0.90;0.90;;;-1.40;99.90;;;;;;4952428;28;20123;-83
2023/03/12 00:42:10;;;;;;;0.90;0.90;;;-1.50;99.90;;;;;;4963144;28;20066;-83
2023/03/12 00:44:37;;;;;;;;;;;-1.60;99.90;;;;;;5014767;28;20042;-83
2023/03/12 00:47:03;;;;;;;0.90;0.90;;;-1.40;99.90;;;;;;4933766;28;19922;-83
2023/03/12 00:49:28;;;;;;;0.75;0.75;;;-1.60;99.90;;;;;;4947164;28;20054;-84
2023/03/12 00:51:54;;;;;;;0.90;0.90;;;-1.70;99.90;;;;;;4917930;28;20138;-83
2023/03/12 00:54:20;;;;;;;0.90;0.90;;;-1.30;99.90;;;;;;4949249;28;20403;-84
2023/03/12 00:56:46;;;;;;;;;;;-0.20;99.90;;;;;;4948104;28;20047;-84
2023/03/12 00:59:23;;;;;;;4.60;4.30;;;-1.80;99.90;;;;;;4948779;28;19944;-84
2023/03/12 01:01:49;;;;;;;0.80;0.80;;;-1.80;99.90;;;;;;4946811;28;20043;-84
2023/03/12 01:04:16;;;;;;;;;;;-1.80;99.90;;;;;;4916562;28;20043;-83
2023/03/12 01:06:42;;;;;;;0.80;0.80;;;-1.80;99.90;;;;;;4963631;28;20348;-81
2023/03/12 01:09:08;;;;;;;1.40;1.30;;;-1.80;99.90;;;;;;4972294;28;20092;-84
2023/03/12 01:11:34;;;;;;;1.75;1.65;;;-1.90;99.90;;;;;;4948520;28;20500;-83
2023/03/12 01:14:01;;;;;;;0.80;0.80;;;-1.90;99.90;;;;;;4946250;28;20051;-82
2023/03/12 01:16:29;;;;;;;0.90;0.90;;;-0.80;99.90;;;;;;4962910;28;20360;-84
2023/03/12 01:18:59;;;;;;;0.90;0.90;;;-1.40;99.90;;;;;;4967988;28;20038;-83
2023/03/12 01:21:26;;;;;;;0.90;0.90;;;-1.80;99.90;;;;;;4930076;28;20567;-83
2023/03/12 01:23:52;;;;;;;0.90;0.90;;;-1.80;99.90;;;;;;4972895;28;20035;-84
2023/03/12 01:26:17;;;;;;;0.85;0.85;;;-1.30;99.90;;;;;;4964769;28;20108;-82
2023/03/12 01:28:43;;;;;;;0.90;0.90;;;-1.80;99.90;;;;;;4947387;28;20055;-83
2023/03/12 01:31:10;;;;;;;;;;;-1.80;99.90;;;;;;4954309;28;20404;-83
2023/03/12 01:33:36;;;;;;;0.80;0.80;;;-1.70;99.90;;;;;;4950361;28;20004;-84
2023/03/12 01:36:02;;;;;;;0.80;0.80;;;-1.70;99.90;;;;;;4951994;28;20158;-82
2023/03/12 01:38:29;;;;;;;0.80;0.80;;;-1.70;99.90;;;;;;5034639;28;20038;-83
2023/03/12 01:40:55;;;;;;;0.77;0.77;;;-1.70;99.90;;;;;;4919222;28;20035;-83
2023/03/12 01:43:21;;;;;;;0.80;0.80;;;-1.80;99.90;;;;;;4964780;28;20472;-84
2023/03/12 01:46:04;;;;;;;0.90;0.90;;;-1.80;99.90;;;;;;4968159;28;20050;-84
2023/03/12 01:48:44;;;;;;;0.80;0.80;;;-1.80;99.90;;;;;;4950088;28;20111;-85
2023/03/12 01:51:12;;;;;;;0.90;0.90;;;-1.80;99.90;;;;;;4962191;28;20085;-85
2023/03/12 01:53:40;;;;;;;0.90;0.90;;;-1.20;99.90;;;;;;4940972;28;20557;-84
2023/03/12 01:56:07;;;;;;;0.90;0.90;;;-1.70;99.90;;;;;;4740430;28;6586938;-84
2023/03/12 01:58:37;;;;;;;0.90;0.90;;;-1.70;99.90;;;;;;4954288;28;20051;-84
2023/03/12 02:01:03;;;;;;;0.85;0.85;;;-1.60;99.90;;;;;;4965784;28;20534;-85
2023/03/12 02:03:31;;;;;;;0.80;0.80;;;-1.50;99.90;;;;;;4935204;28;20053;-83
2023/03/12 02:06:05;;;;;;;0.90;0.90;;;-1.30;99.90;;;;;;4956949;28;20397;-85
2023/03/12 02:08:36;;;;;;;0.80;0.80;;;-1.30;99.90;;;;;;4944796;28;20133;-83
2023/03/12 02:11:01;;;;;;;0.90;0.90;;;-1.20;99.90;;;;;;4969947;28;20043;-85
2023/03/12 02:13:27;;;;;;;0.73;0.73;;;-1.10;99.90;;;;;;4932931;28;20112;-84
2023/03/12 02:15:53;;;;;;;0.80;0.80;;;-1.00;99.90;;;;;;4970256;28;20408;-82
2023/03/12 02:18:20;;;;;;;0.80;0.80;;;-0.80;99.90;;;;;;4966188;28;20050;-83
2023/03/12 02:21:00;;;;;;;0.77;0.77;;;-0.70;99.90;;;;;;4957531;28;20043;-83
2023/03/12 02:23:44;;;;;;;0.77;0.77;;;-0.60;99.90;;;;;;4946641;28;20039;-83
2023/03/12 02:26:11;;;;;;;0.70;0.70;;;-0.50;99.90;;;;;;4967679;28;20043;-83
2023/03/12 02:28:42;;;;;;;0.70;0.70;;;-0.40;99.90;;;;;;4950502;28;20758;-84
2023/03/12 02:31:12;;;;;;;0.70;0.70;;;-0.30;99.90;;;;;;4949186;28;20043;-82
2023/03/12 02:33:38;;;;;;;0.70;0.70;;;-0.20;99.90;;;;;;4966756;28;20074;-84
2023/03/12 02:36:04;;;;;;;0.85;0.85;;;-0.20;99.90;;;;;;4967655;28;20113;-85
2023/03/12 02:38:43;;;;;;;0.80;0.80;;;-0.10;99.90;;;;;;4938775;28;20066;-84
2023/03/12 02:41:14;;;;;;;0.70;0.70;;;-0.10;99.90;;;;;;4965031;28;20126;-84
2023/03/12 02:43:43;;;;;;;1.95;1.80;;;-0.10;99.90;;;;;;4967363;28;20047;-84
2023/03/12 02:46:09;;;;;;;0.80;0.80;;;0.00;99.90;;;;;;4962066;28;20047;-83
2023/03/12 02:48:41;;;;;;;0.90;0.90;;;0.30;99.90;;;;;;4963457;28;20092;-82
2023/03/12 02:51:08;;;;;;;0.70;0.70;;;0.00;99.90;;;;;;4965123;28;20046;-83
2023/03/12 02:53:34;;;;;;;0.80;0.80;;;0.10;99.90;;;;;;4947801;28;20050;-83
2023/03/12 02:56:01;;;;;;;0.80;0.80;;;1.80;99.90;;;;;;4941819;28;20055;-85
2023/03/12 02:58:26;;;;;;;0.80;0.80;;;0.10;99.90;;;;;;4963247;28;20057;-84
2023/03/12 03:00:52;;;;;;;0.80;0.80;;;0.90;99.90;;;;;;5032044;28;20043;-84
2023/03/12 03:03:18;;;;;;;0.65;0.65;;;0.20;99.90;;;;;;4935081;28;20043;-83
2023/03/12 03:05:44;;;;;;;0.90;0.90;;;0.20;99.90;;;;;;4966157;28;20053;-82
2023/03/12 03:08:09;;;;;;;0.80;0.80;;;0.30;99.90;;;;;;4948054;28;20145;-82
2023/03/12 03:10:35;;;;;;;0.80;0.80;;;0.30;99.90;;;;;;4969195;28;20048;-82
2023/03/12 03:13:01;;;;;;;0.90;0.90;;;1.40;99.90;;;;;;4963610;28;20047;-84
2023/03/12 03:15:26;;;;;;;0.80;0.80;;;0.40;99.90;;;;;;4964860;28;20503;-84
2023/03/12 03:17:52;;;;;;;0.70;0.70;;;0.40;99.90;;;;;;4966671;28;20047;-82
2023/03/12 03:20:18;;;;;;;0.85;0.85;;;1.10;99.90;;;;;;4963121;28;20045;-85
2023/03/12 03:22:50;;;;;;;0.65;0.65;;;0.50;99.90;;;;;;4961998;28;20050;-84
2023/03/12 03:25:17;;;;;;;0.93;0.93;;;0.50;99.90;;;;;;4948296;28;20047;-83
2023/03/12 03:27:42;;;;;;;0.70;0.70;;;0.50;99.90;;;;;;4959975;28;20111;-83
2023/03/12 03:30:10;;;;;;;0.70;0.70;;;0.50;99.90;;;;;;4959891;28;20480;-84
2023/03/12 03:32:37;;;;;;;0.70;0.70;;;0.50;99.90;;;;;;4956193;28;20388;-83
2023/03/12 03:35:03;;;;;;;0.70;0.70;;;1.10;99.90;;;;;;4949571;28;20055;-84
2023/03/12 03:37:29;;;;;;;0.70;0.70;;;0.40;99.90;;;;;;4964398;28;20130;-83
2023/03/12 03:39:54;;;;;;;0.70;0.70;;;0.30;99.90;;;;;;4948940;28;20042;-84
2023/03/12 03:42:20;;;;;;;0.80;0.80;;;0.40;99.90;;;;;;4964653;28;20039;-83
2023/03/12 03:44:46;;;;;;;1.10;1.10;;;1.40;99.90;;;;;;4929153;28;20043;-82
2023/03/12 03:47:11;;;;;;;0.65;0.65;;;0.70;99.90;;;;;;4917526;28;20049;-82
2023/03/12 03:49:37;;;;;;;0.80;0.80;;;0.30;99.90;;;;;;4964526;28;20046;-82
2023/03/12 03:52:03;;;;;;;0.70;0.70;;;0.30;99.90;;;;;;4946850;28;20090;-84
2023/03/12 03:54:29;;;;;;;0.95;0.95;;;0.30;99.90;;;;;;4946983;28;20050;-84
2023/03/12 03:56:57;;;;;;;0.77;0.77;;;0.70;99.90;;;;;;4965330;28;20435;-84
2023/03/12 03:59:23;;;;;;;0.85;0.85;;;0.30;99.90;;;;;;4944860;28;20479;-82
2023/03/12 04:01:50;;;;;;;0.80;0.80;;;1.00;99.90;;;;;;4958047;28;20047;-83
2023/03/12 04:04:18;;;;;;;0.68;0.68;;;0.30;99.90;;;;;;4950568;28;20041;-83
2023/03/12 04:06:46;;;;;;;0.75;0.75;;;0.90;99.90;;;;;;4959052;28;20050;-85
2023/03/12 04:09:12;;;;;;;0.70;0.70;;;0.10;99.90;;;;;;4932961;28;20532;-84
2023/03/12 04:11:38;;;;;;;0.80;0.80;;;2.00;99.90;;;;;;4960496;28;20121;-83
2023/03/12 04:14:04;;;;;;;0.65;0.65;;;0.10;99.90;;;;;;4931827;28;20096;-83
2023/03/12 04:16:29;;;;;;;0.80;0.80;;;0.10;99.90;;;;;;4950178;28;20046;-83
2023/03/12 04:18:55;;;;;;;0.70;0.70;;;0.10;99.90;;;;;;4963929;28;20108;-84
2023/03/12 04:21:21;;;;;;;0.80;0.80;;;0.10;99.90;;;;;;4962560;28;20548;-83
2023/03/12 04:23:46;;;;;;;0.80;0.80;;;0.10;99.90;;;;;;4969212;28;20047;-85
2023/03/12 04:26:12;;;;;;;0.60;0.60;;;0.00;99.90;;;;;;4964384;28;20181;-83
2023/03/12 04:28:38;;;;;;;0.80;0.80;;;0.10;99.90;;;;;;4945357;28;20046;-85
2023/03/12 04:31:06;;;;;;;0.80;0.80;;;0.00;99.90;;;;;;4971916;28;20047;-85
2023/03/12 04:33:36;;;;;;;0.70;0.70;;;0.10;99.90;;;;;;4965197;28;20500;-84
2023/03/12 04:36:01;;;;;;;0.70;0.70;;;0.10;99.90;;;;;;4965290;28;20051;-84
2023/03/12 04:38:27;;;;;;;0.80;0.80;;;0.10;99.90;;;;;;4940750;28;20065;-83
2023/03/12 04:41:08;;;;;;;0.80;0.80;;;0.10;99.90;;;;;;4944976;28;20051;-83
2023/03/12 04:43:34;;;;;;;1.30;1.20;;;0.60;99.90;;;;;;4947108;28;20389;-82
2023/03/12 04:46:01;;;;;;;;;;;1.20;99.90;;;;;;4962854;28;20051;-82
2023/03/12 04:48:27;;;;;;;;;;;0.90;99.90;;;;;;4965706;28;19918;-83
2023/03/12 04:50:53;;;;;;;0.70;0.70;;;0.10;99.90;;;;;;4943953;28;20303;-82
2023/03/12 04:53:19;;;;;;;0.80;0.80;;;0.20;99.90;;;;;;4960884;28;20045;-84
2023/03/12 04:55:45;;;;;;;0.60;0.60;;;0.20;99.90;;;;;;4964650;28;20059;-84
2023/03/12 04:58:11;;;;;;;0.80;0.80;;;0.20;99.90;;;;;;5022325;28;20043;-84
2023/03/12 05:00:37;;;;;;;;;;;1.70;99.90;;;;;;4956676;28;20481;-82
2023/03/12 05:03:11;;;;;;;0.80;0.80;;;0.60;99.90;;;;;;4972485;28;20375;-83
2023/03/12 05:05:36;;;;;;;0.80;0.80;;;1.50;99.90;;;;;;4944860;28;20437;-83
2023/03/12 05:08:03;;;;;;;3.28;3.08;;;0.10;99.90;;;;;;4960721;28;20130;-83
2023/03/12 05:10:28;;;;;;;0.70;0.70;;;0.20;99.90;;;;;;4932339;28;20173;-82
2023/03/12 05:12:54;;;;;;;0.90;0.90;;;0.10;99.90;;;;;;4932653;28;20129;-83
2023/03/12 05:15:20;;;;;;;0.90;0.90;;;0.10;99.90;;;;;;4944078;28;20485;-83
2023/03/12 05:17:46;;;;;;;0.70;0.70;;;0.10;99.90;;;;;;4930477;28;20039;-83
2023/03/12 05:20:12;;;;;;;0.80;0.80;;;0.20;99.90;;;;;;4944021;28;20050;-83
2023/03/12 05:22:38;;;;;;;0.80;0.80;;;0.20;99.90;;;;;;4931335;28;20042;-83
2023/03/12 05:25:04;;;;;;;0.65;0.65;;;0.20;99.90;;;;;;4947283;28;20460;-83
2023/03/12 05:27:30;;;;;;;0.77;0.77;;;0.20;99.90;;;;;;4960880;28;20043;-84
2023/03/12 05:29:56;;;;;;;0.75;0.75;;;0.20;99.90;;;;;;4980771;28;20043;-84
2023/03/12 05:32:22;;;;;;;0.80;0.80;;;0.30;99.90;;;;;;4947684;28;20053;-84
2023/03/12 05:34:47;;;;;;;1.60;1.52;;;-0.10;99.90;;;;;;4957563;28;20043;-83
2023/03/12 05:37:13;;;;;;;0.82;0.82;;;-0.10;99.90;;;;;;5028410;28;20043;-83
2023/03/12 05:39:45;;;;;;;0.90;0.90;;;0.80;99.90;;;;;;4963358;28;20077;-82
2023/03/12 05:42:14;;;;;;;2.10;2.00;;;1.40;99.90;;;;;;4964334;28;20053;-83
2023/03/12 05:44:40;;;;;;;0.80;0.80;;;0.10;99.90;;;;;;4963106;28;20066;-83
2023/03/12 05:47:07;;;;;;;0.73;0.73;;;0.10;99.90;;;;;;4955170;28;20051;-83
2023/03/12 05:49:32;;;;;;;0.88;0.88;;;0.20;99.90;;;;;;4955643;28;20067;-84
2023/03/12 05:51:59;;;;;;;0.70;0.70;;;0.20;99.90;;;;;;4926073;28;20140;-81
2023/03/12 05:54:25;;;;;;;0.75;0.75;;;0.20;99.90;;;;;;4938031;28;20089;-83
2023/03/12 05:56:51;;;;;;;0.70;0.70;;;0.20;99.90;;;;;;4945053;28;20059;-81
2023/03/12 05:59:17;;;;;;;0.60;0.60;;;0.20;99.90;;;;;;4929296;28;21524;-83
2023/03/12 06:01:43;;;;;;;0.70;0.70;;;1.80;99.90;;;;;;5031787;28;20078;-82
2023/03/12 06:04:10;;;;;;;0.52;0.52;;;0.30;99.90;;;;;;4963535;28;20051;-83
2023/03/12 06:06:36;;;;;;;0.70;0.70;;;0.30;99.90;;;;;;4954891;28;20173;-84
2023/03/12 06:09:04;;;;;;;0.98;0.98;;;0.40;99.90;;;;;;4962849;28;20066;-83
2023/03/12 06:11:31;;;;;;;0.60;0.60;;;0.40;99.90;;;;;;4970726;28;20096;-84
2023/03/12 06:13:57;;;;;;;0.70;0.70;;;0.40;99.90;;;;;;4961542;28;20046;-84
2023/03/12 06:16:26;;;;;;;0.70;0.70;;;0.50;99.90;;;;;;4933501;28;20129;-83
2023/03/12 06:18:56;;;;;;;0.80;0.80;;;0.50;99.90;;;;;;4961423;28;20133;-84
2023/03/12 06:21:25;;;;;;;0.70;0.70;;;0.50;99.90;;;;;;4981648;28;20133;-82
2023/03/12 06:23:51;;;;;;;0.80;0.80;;;0.50;99.90;;;;;;4949548;28;20058;-83
2023/03/12 06:26:17;;;;;;;;;;;0.50;99.90;;;;;;4967806;28;20473;-83
2023/03/12 06:28:45;;;;;;;0.80;0.80;;;0.50;99.90;;;;;;4947785;28;19918;-83
2023/03/12 06:31:11;;;;;;;0.70;0.70;;;0.60;99.90;;;;;;4995401;28;20043;-83
2023/03/12 06:33:37;;;;;;;0.57;0.57;;;0.60;99.90;;;;;;4941799;28;20050;-83
2023/03/12 06:36:04;;;;;;;;;;;0.70;99.90;;;;;;4966705;28;20428;-84
2023/03/12 06:38:30;;;;;;;0.80;0.80;;;0.60;99.90;;;;;;4948692;28;20389;-83
2023/03/12 06:41:03;;;;;;;0.52;0.52;;;0.70;99.90;;;;;;5031789;28;20043;-81
2023/03/12 06:43:33;;;;;;;0.60;0.60;;;0.70;99.90;;;;;;4963172;28;20426;-83
2023/03/12 06:46:01;;;;;;;0.70;0.70;;;0.70;99.90;;;;;;4964714;28;20050;-83
2023/03/12 06:48:32;;;;;;;0.70;0.70;;;0.70;99.90;;;;;;4948106;28;20539;-84
2023/03/12 06:50:58;;;;;;;0.70;0.70;;;0.70;99.90;;;;;;4966892;28;20042;-83
2023/03/12 06:53:24;;;;;;;;;;;0.70;99.90;;;;;;4949769;28;20058;-83
2023/03/12 06:55:51;;;;;;;1.00;1.00;;;0.70;99.90;;;;;;4961352;28;20329;-83
2023/03/12 06:58:17;;;;;;;0.68;0.68;;;1.60;99.90;;;;;;4966597;28;20054;-83
2023/03/12 07:00:44;;;;;;;0.60;0.60;;;0.70;99.90;;;;;;4946226;28;20510;-84
2023/03/12 07:03:10;;;;;;;;;;;0.80;99.90;;;;;;4967503;28;20506;-84
2023/03/12 07:05:35;;;;;;;0.90;0.90;;;0.80;99.90;;;;;;4956206;28;20020;-84
2023/03/12 07:08:01;;;;;;;0.77;0.77;;;0.80;99.90;;;;;;4967709;28;20610;-85
2023/03/12 07:10:28;;;;;;;0.70;0.70;;;1.30;99.90;;;;;;4970914;28;20039;-80
2023/03/12 07:12:57;;;;;;;0.70;0.70;;;0.90;99.90;;;;;;4960327;28;20067;-83
2023/03/12 07:15:23;;;;;;;4.55;4.35;;;1.40;99.90;;;;;;4920551;28;20566;-84
2023/03/12 07:17:49;;;;;;;0.70;0.70;;;1.00;99.90;;;;;;4950052;28;20051;-84
2023/03/12 07:20:15;;;;;;;;;;;1.10;99.90;;;;;;4935792;28;20388;-84
2023/03/12 07:22:41;;;;;;;0.70;0.70;;;1.10;99.90;;;;;;4935907;28;19926;-85
2023/03/12 07:25:08;;;;;;;0.70;0.70;;;1.20;99.90;;;;;;4950390;28;20450;-84
2023/03/12 07:27:34;;;;;;;0.70;0.70;;;1.20;99.90;;;;;;4949516;28;20052;-84
2023/03/12 07:30:00;;;;;;;0.75;0.75;;;1.30;99.90;;;;;;4995573;28;20386;-83
2023/03/12 07:32:26;;;;;;;0.70;0.70;;;2.40;99.90;;;;;;4947269;28;20058;-82
2023/03/12 07:34:52;;;;;;;1.00;1.00;;;1.30;99.90;;;;;;4964371;28;20039;-84
2023/03/12 07:37:18;;;;;;;0.77;0.77;;;1.20;99.90;;;;;;4949001;28;20051;-82
2023/03/12 07:39:44;;;;;;;0.90;0.90;;;1.20;99.90;;;;;;4935254;28;20459;-83
2023/03/12 07:42:11;;;;;;;1.00;1.00;;;1.30;99.90;;;;;;4934348;28;20050;-83
2023/03/12 07:44:37;;;;;;;0.70;0.70;;;1.30;99.90;;;;;;4961036;28;20046;-84
2023/03/12 07:47:03;;;;;;;0.63;0.63;;;1.20;99.90;;;;;;4913779;29;20043;-84
2023/03/12 07:49:29;;;;;;;0.70;0.70;;;1.20;99.90;;;;;;4948431;28;20056;-84
2023/03/12 07:51:54;;;;;;;0.80;0.80;;;2.20;99.90;;;;;;4948328;28;20150;-83
2023/03/12 07:54:24;;;;;;;1.10;1.05;;;1.20;99.90;;;;;;4949207;28;20495;-84
2023/03/12 07:56:50;;;;;;;1.05;1.05;;;1.10;99.90;;;;;;4966924;28;20063;-82
2023/03/12 07:59:16;;;;;;;2.15;1.95;;;2.20;99.90;;;;;;4943453;28;20100;-84
2023/03/12 08:01:42;;;;;;;2.15;1.70;;;1.60;99.90;;;;;;4960385;28;20480;-84
2023/03/12 08:04:09;;;;;;;0.98;0.98;;;1.00;99.90;;;;;;4933931;28;20038;-83
2023/03/12 08:06:34;;;;;;;0.70;0.70;;;1.10;99.90;;;;;;4963289;28;20092;-83
2023/03/12 08:09:00;;;;;;;0.93;0.90;;;1.10;99.90;;;;;;4957286;28;20050;-83
2023/03/12 08:11:29;;;;;;;0.80;0.80;;;1.50;99.90;;;;;;4965070;28;20078;-83
2023/03/12 08:13:55;;;;;;;0.77;0.77;;;1.00;99.90;;;;;;4960781;28;20597;-83
2023/03/12 08:16:21;;;;;;;1.60;1.50;;;1.00;99.90;;;;;;4946535;28;20051;-83
2023/03/12 08:18:47;;;;;;;0.73;0.73;;;1.00;99.90;;;;;;4963393;28;20069;-84
2023/03/12 08:21:13;;;;;;;0.70;0.70;;;1.00;99.90;;;;;;4963853;28;20089;-83
2023/03/12 08:23:39;;;;;;;0.60;0.60;;;1.00;99.90;;;;;;4964874;28;20049;-83
2023/03/12 08:26:05;;;;;;;0.80;0.80;;;1.00;99.90;;;;;;4944459;28;20129;-85
2023/03/12 08:28:30;;;;;;;0.60;0.60;;;1.00;99.90;;;;;;4929324;28;20043;-83
2023/03/12 08:30:58;;;;;;;0.70;0.70;;;0.90;99.90;;;;;;4961960;28;20047;-83
2023/03/12 08:33:24;;;;;;;0.73;0.73;;;0.90;99.90;;;;;;4943211;28;20417;-83
2023/03/12 08:35:49;;;;;;;0.73;0.73;;;0.90;99.90;;;;;;4943801;28;20043;-84
2023/03/12 08:38:15;;;;;;;0.80;0.80;;;0.90;99.90;;;;;;4957382;28;20121;-82
2023/03/12 08:40:41;;;;;;;1.42;1.33;;;1.00;99.90;;;;;;4929338;28;20070;-83
2023/03/12 08:43:08;;;;;;;0.70;0.70;;;1.10;99.90;;;;;;4943681;28;20480;-84
2023/03/12 08:45:37;;;;;;;0.82;0.82;;;1.90;99.90;;;;;;4948597;28;20590;-84
2023/03/12 08:48:03;;;;;;;0.73;0.73;;;1.10;99.90;;;;;;4968118;28;20038;-83
2023/03/12 08:50:30;;;;;;;0.52;0.52;;;1.20;99.90;;;;;;4945862;28;21234;-84
2023/03/12 08:52:57;;;;;;;0.80;0.80;;;1.20;99.90;;;;;;4966462;28;20053;-85
2023/03/12 08:55:24;;;;;;;0.70;0.70;;;1.30;99.90;;;;;;4963125;28;20047;-85
2023/03/12 08:57:49;;;;;;;0.90;0.90;;;1.40;99.90;;;;;;4965492;28;20097;-84
2023/03/12 09:00:16;;;;;;;1.05;1.05;;;1.50;99.90;;;;;;4950094;28;20137;-84
2023/03/12 09:02:44;;;;;;;0.60;0.60;;;1.50;99.90;;;;;;4964273;28;20112;-82
2023/03/12 09:05:10;;;;;;;0.70;0.70;;;1.60;99.90;;;;;;4950762;28;20487;-82
2023/03/12 09:07:36;;;;;;;0.70;0.70;;;1.80;99.90;;;;;;4962779;28;20039;-84
2023/03/12 09:10:03;;;;;;;0.70;0.70;;;1.70;99.90;;;;;;4967346;28;20525;-82
2023/03/12 09:12:28;;;;;;;0.90;0.90;;;1.70;99.90;;;;;;5029043;28;20393;-82
2023/03/12 09:14:54;;;;;;;1.33;1.17;;;1.70;99.90;;;;;;4943187;28;20042;-82
2023/03/12 09:17:20;;;;;;;1.70;1.60;;;1.60;99.90;;;;;;4967159;28;20042;-84
2023/03/12 09:19:46;;;;;;;0.70;0.70;;;1.60;99.90;;;;;;4954586;28;20047;-82
2023/03/12 09:22:12;;;;;;;0.60;0.60;;;1.50;99.90;;;;;;4965295;28;20038;-83
2023/03/12 09:24:38;;;;;;;1.48;1.10;;;1.50;99.90;;;;;;4959345;28;20138;-81
2023/03/12 09:27:04;;;;;;;0.60;0.60;;;1.40;99.90;;;;;;4966630;28;20536;-84
2023/03/12 09:29:30;;;;;;;0.80;0.80;;;1.40;99.90;;;;;;4941923;28;20373;-83
2023/03/12 09:31:57;;;;;;;0.70;0.70;;;1.40;99.90;;;;;;4963443;28;20399;-83
2023/03/12 09:34:23;;;;;;;0.75;0.75;;;1.30;99.90;;;;;;4945769;28;20046;-83
2023/03/12 09:36:48;;;;;;;0.82;0.82;;;1.30;99.90;;;;;;4935391;28;20055;-82
2023/03/12 09:39:14;;;;;;;0.70;0.70;;;1.20;99.90;;;;;;4949559;28;20062;-82
2023/03/12 09:41:43;;;;;;;1.45;1.35;;;1.20;99.90;;;;;;4951310;28;20046;-82
2023/03/12 09:44:09;;;;;;;0.60;0.60;;;1.20;99.90;;;;;;4967781;28;20049;-83
2023/03/12 09:46:49;;;;;;;0.90;0.90;;;1.40;99.90;;;;;;4963237;28;20442;-80
2023/03/12 09:49:46;;;;;;;1.55;1.05;;;1.20;99.90;;;;;;4949402;28;20058;-82
2023/03/12 09:52:28;;;;;;;0.60;0.60;;;1.20;99.90;;;;;;4953711;28;20490;-83
2023/03/12 09:55:15;;;;;;;0.98;0.98;;;1.20;99.90;;;;;;4966283;28;20074;-82
2023/03/12 09:57:45;;;;;;;0.70;0.70;;;1.30;99.90;;;;;;4962428;28;20058;-83
2023/03/12 10:00:17;;;;;;;0.70;0.70;;;1.30;99.90;;;;;;4963634;28;20043;-83
2023/03/12 10:03:16;;;;;;;0.80;0.80;;;1.30;99.90;;;;;;4949792;28;20047;-84
2023/03/12 10:06:00;;;;;;;0.80;0.80;;;1.40;99.90;;;;;;4966308;28;20426;-85
2023/03/12 10:08:42;;;;;;;1.15;1.15;;;1.40;99.90;;;;;;4968041;28;20062;-83
2023/03/12 10:11:57;;;;;;;0.60;0.60;;;1.40;99.90;;;;;;4966072;28;21206;-84
2023/03/12 10:14:41;;;;;;;0.73;0.73;;;1.50;99.90;;;;;;4971259;28;20073;-84
2023/03/12 10:17:10;;;;;;;0.52;0.52;;;1.50;99.90;;;;;;4959684;28;20078;-83
2023/03/12 10:19:43;;;;;;;0.82;0.82;;;2.40;99.90;;;;;;4949062;28;20368;-85
2023/03/12 10:22:33;;;;;;;0.60;0.60;;;1.60;99.90;;;;;;4962929;28;20044;-84
2023/03/12 10:25:20;;;;;;;0.93;0.93;;;1.60;99.90;;;;;;4956838;28;20039;-83
2023/03/12 10:27:49;;;;;;;0.65;0.65;;;1.70;99.90;;;;;;4992373;28;20061;-83
2023/03/12 10:30:23;;;;;;;0.90;0.90;;;1.80;99.90;;;;;;4966395;28;20043;-83
2023/03/12 10:32:55;;;;;;;0.70;0.70;;;2.40;99.90;;;;;;4963312;28;20055;-84
2023/03/12 10:35:23;;;;;;;0.85;0.85;;;2.00;99.90;;;;;;4966410;28;20113;-84
2023/03/12 10:37:50;;;;;;;0.60;0.60;;;2.00;99.90;;;;;;4969471;28;20043;-84
2023/03/12 10:40:20;;;;;;;0.90;0.90;;;2.00;99.90;;;;;;4953009;28;20046;-82
2023/03/12 10:42:46;;;;;;;1.23;1.15;;;2.10;99.90;;;;;;5006276;28;20047;-84
2023/03/12 10:45:25;;;;;;;2.35;1.92;;;2.00;99.90;;;;;;4966600;28;20100;-84
2023/03/12 10:47:56;;;;;;;0.75;0.75;;;2.10;99.90;;;;;;4958981;28;20435;-82
2023/03/12 10:50:40;;;;;;;0.60;0.60;;;2.10;99.90;;;;;;4965067;28;20042;-83
2023/03/12 10:53:27;;;;;;;0.77;0.77;;;2.10;99.90;;;;;;4941099;28;20039;-82
2023/03/12 10:56:08;;;;;;;0.50;0.50;;;2.50;99.90;;;;;;4960252;28;20063;-83
2023/03/12 10:58:46;;;;;;;0.70;0.70;;;2.30;99.90;;;;;;4944763;28;20046;-84
2023/03/12 11:01:31;;;;;;;1.00;1.00;;;2.30;99.90;;;;;;4966391;28;20639;-83
2023/03/12 11:04:17;;;;;;;0.70;0.70;;;2.20;99.90;;;;;;4974386;28;20040;-84
2023/03/12 11:07:02;;;;;;;0.70;0.70;;;2.40;99.90;;;;;;4967768;28;20099;-83
2023/03/12 11:09:27;;;;;;;0.90;0.90;;;2.20;99.90;;;;;;4966679;28;20483;-84
2023/03/12 11:11:53;;;;;;;1.35;0.90;;;3.10;99.90;;;;;;4979612;28;20562;-83
2023/03/12 11:14:28;;;;;;;0.50;0.50;;;2.20;99.90;;;;;;4939282;28;20043;-84
2023/03/12 11:16:55;;;;;;;0.50;0.50;;;2.20;99.90;;;;;;4967249;28;20051;-82
2023/03/12 11:19:30;;;;;;;0.70;0.70;;;2.20;99.90;;;;;;4968052;28;20523;-84
2023/03/12 11:21:58;;;;;;;2.08;1.33;;;2.40;99.90;;;;;;4964477;28;20070;-82
2023/03/12 11:24:24;;;;;;;0.70;0.70;;;2.40;99.90;;;;;;4966914;28;20046;-83
2023/03/12 11:27:10;;;;;;;0.73;0.73;;;2.50;99.90;;;;;;4951183;28;20046;-83
2023/03/12 11:29:43;;;;;;;0.80;0.80;;;2.50;99.90;;;;;;4964349;28;20059;-83
2023/03/12 11:32:30;;;;;;;0.95;0.95;;;2.60;99.90;;;;;;4961867;28;20062;-83
2023/03/12 11:34:56;;;;;;;0.82;0.82;;;2.60;99.90;;;;;;4955195;28;20039;-82
2023/03/12 11:37:59;;;;;;;1.00;1.00;;;2.60;99.90;;;;;;4949290;28;20050;-83
2023/03/12 11:40:46;;;;;;;0.68;0.68;;;2.60;99.90;;;;;;4960627;28;20043;-83
2023/03/12 11:43:48;;;;;;;0.60;0.60;;;2.70;99.90;;;;;;4959278;28;20121;-83
2023/03/12 11:46:44;;;;;;;1.02;0.85;;;2.80;99.90;;;;;;4959133;28;20154;-84
2023/03/12 11:49:33;;;;;;;2.65;1.42;;;2.80;99.90;;;;;;4946771;28;20054;-83
2023/03/12 11:52:16;;;;;;;1.50;1.48;;;2.90;99.90;;;;;;4964671;28;20046;-82
2023/03/12 11:55:17;;;;;;;0.80;0.80;;;2.90;99.90;;;;;;4960379;28;20122;-84
2023/03/12 11:58:02;;;;;;;0.85;0.85;;;3.00;99.90;;;;;;4989631;28;20048;-83
2023/03/12 12:00:43;;;;;;;0.68;0.68;;;3.00;99.90;;;;;;4962867;28;20652;-84
2023/03/12 12:03:09;;;;;;;0.82;0.82;;;3.10;99.90;;;;;;4996305;28;20042;-83
2023/03/12 12:06:00;;;;;;;0.63;0.63;;;3.20;99.90;;;;;;4951218;28;20680;-82
2023/03/12 12:09:14;;;;;;;0.70;0.70;;;3.40;99.90;;;;;;4970036;28;20050;-83
2023/03/12 12:11:57;;;;;;;0.68;0.68;;;3.40;99.90;;;;;;4876850;28;20085;-83
2023/03/12 12:14:29;;;;;;;0.60;0.60;;;3.50;99.90;;;;;;4958762;28;20072;-84
2023/03/12 12:17:04;;;;;;;1.30;1.23;;;3.60;99.90;;;;;;4965218;28;20126;-84
2023/03/12 12:19:56;;;;;;;0.70;0.70;;;3.70;99.90;;;;;;4958661;28;20039;-84
2023/03/12 12:22:45;;;;;;;2.97;0.93;;;3.80;99.90;;;;;;4954972;28;20039;-84
2023/03/12 12:25:35;;;;;;;0.88;0.88;;;4.00;99.90;;;;;;4957402;28;20046;-85
2023/03/12 12:28:39;;;;;;;0.98;0.98;;;4.10;99.90;;;;;;4969570;28;20076;-84
2023/03/12 12:31:18;;;;;;;0.80;0.80;;;4.20;99.90;;;;;;4962209;28;20049;-84
2023/03/12 12:34:03;;;;;;;0.65;0.65;;;4.40;99.90;;;;;;4948527;28;20054;-83
2023/03/12 12:36:33;;;;;;;0.70;0.70;;;4.50;99.90;;;;;;4974676;28;20049;-83
2023/03/12 12:39:04;;;;;;;0.80;0.80;;;4.60;99.90;;;;;;4962357;28;20041;-84
2023/03/12 12:41:43;;;;;;;0.60;0.60;;;4.70;99.90;;;;;;4959903;28;20042;-85
2023/03/12 12:44:23;;;;;;;0.80;0.80;;;4.80;99.90;;;;;;4941189;28;20045;-85
2023/03/12 12:47:01;;;;;;;1.30;1.30;;;4.90;99.90;;;;;;4958295;28;20055;-86
2023/03/12 12:49:45;;;;;;;0.90;0.90;;;5.00;99.90;;;;;;4972010;28;20081;-83
2023/03/12 12:52:14;;;;;;;0.60;0.60;;;5.10;99.90;;;;;;4955566;28;20051;-88
2023/03/12 12:55:05;;;;;;;0.70;0.70;;;5.30;99.90;;;;;;4969199;28;20054;-84
2023/03/12 12:57:56;;;;;;;0.60;0.60;;;5.40;99.90;;;;;;4960792;28;20564;-86
2023/03/12 13:00:43;;;;;;;0.80;0.80;;;5.60;99.90;;;;;;4957195;28;20035;-88
2023/03/12 13:03:16;;;;;;;0.60;0.60;;;5.80;99.90;;;;;;4960704;28;20049;-85
2023/03/12 13:06:02;;;;;;;0.60;0.60;;;5.90;99.90;;;;;;4964524;28;20050;-86
2023/03/12 13:08:43;;;;;;;2.08;1.02;;;6.00;99.90;;;;;;4962584;28;20069;-85
2023/03/12 13:11:29;;;;;;;1.25;1.15;;;6.10;99.90;;;;;;4981668;28;20522;-86
2023/03/12 13:14:01;;;;;;;0.60;0.60;;;6.20;99.90;;;;;;4968544;28;20061;-86